Time;durP1;ratioP1;P1;durP2;ratioP2;P2;SDS_P1;SDS_P2;PMS_P1;PMS_P2;Temp;Humidity;BMP_temperature;BMP_pressure;BME280_temperature;BME280_humidity;BME280_pressure;Samples;Min_cycle;Max_cycle;Signal;HPM_P1;HPM_P2
2022/08/13 00:02:16;;;;;;;3.80;1.48;;;;;;;;;;5035635;28;20235;-83
2022/08/13 00:04:47;;;;;;;2.20;1.50;;;;;;;;;;5036264;28;20234;-83
2022/08/13 00:07:14;;;;;;;2.72;1.90;;;;;;;;;;5035625;28;20266;-83
2022/08/13 00:09:43;;;;;;;2.07;1.70;;;;;;;;;;5036059;28;20199;-83
2022/08/13 00:15:00;;;;;;;1.67;1.40;;;;;;;;;;5035162;28;20206;-83
2022/08/13 00:17:27;;;;;;;2.37;1.50;;;;;;;;;;5035763;28;20222;-83
2022/08/13 00:19:54;;;;;;;1.67;1.57;;;;;;;;;;5035164;28;20223;-83
2022/08/13 00:22:23;;;;;;;1.67;1.33;;;;;;;;;;5035627;28;20206;-83
2022/08/13 00:24:51;;;;;;;3.93;1.70;;;;;;;;;;5036073;28;20206;-83
2022/08/13 00:27:18;;;;;;;2.13;1.40;;;;;;;;;;5035492;28;20246;-83
2022/08/13 00:29:45;;;;;;;3.00;1.50;;;;;;;;;;5035728;28;20199;-83
2022/08/13 00:32:17;;;;;;;3.57;1.57;;;;;;;;;;5035149;28;20265;-83
2022/08/13 00:34:44;;;;;;;1.70;1.60;;;;;;;;;;5035345;28;20237;-83
2022/08/13 00:37:11;;;;;;;1.50;1.40;;;;;;;;;;5034507;28;20250;-83
2022/08/13 00:39:39;;;;;;;2.10;1.57;;;;;;;;;;5035430;28;20598;-83
2022/08/13 00:42:06;;;;;;;1.57;1.47;;;;;;;;;;5034864;28;20596;-83
2022/08/13 00:44:33;;;;;;;2.83;1.83;;;;;;;;;;5035436;28;20630;-81
2022/08/13 00:49:47;;;;;;;2.93;1.50;;;;;;;;;;5035220;28;20721;-83
2022/08/13 00:52:14;;;;;;;1.53;1.43;;;;;;;;;;5034266;28;20230;-83
2022/08/13 00:54:42;;;;;;;1.70;1.60;;;;;;;;;;5034739;28;20654;-82
2022/08/13 00:57:10;;;;;;;1.93;1.37;;;;;;;;;;5034507;28;20258;-83
2022/08/13 00:59:37;;;;;;;2.67;1.77;;;;;;;;;;5035148;28;20617;-83
2022/08/13 01:02:05;;;;;;;4.00;1.60;;;;;;;;;;5034188;28;20272;-83
2022/08/13 01:04:33;;;;;;;3.20;1.50;;;;;;;;;;5030598;28;20242;-83
2022/08/13 01:07:02;;;;;;;1.90;1.80;;;;;;;;;;5016097;28;20227;-83
2022/08/13 01:09:30;;;;;;;2.73;1.60;;;;;;;;;;5034374;28;20670;-83
2022/08/13 01:11:59;;;;;;;3.80;1.90;;;;;;;;;;5033585;28;20238;-83
2022/08/13 01:14:26;;;;;;;2.63;1.70;;;;;;;;;;5034791;28;20549;-83
2022/08/13 01:16:53;;;;;;;2.37;1.70;;;;;;;;;;5034058;28;20249;-83
2022/08/13 01:19:21;;;;;;;1.50;1.40;;;;;;;;;;5034930;28;20318;-83
2022/08/13 01:21:52;;;;;;;1.60;1.50;;;;;;;;;;5026859;28;20234;-83
2022/08/13 01:24:20;;;;;;;2.10;1.67;;;;;;;;;;5034902;28;20198;-83
2022/08/13 01:26:47;;;;;;;4.33;1.80;;;;;;;;;;5034036;28;20242;-83
2022/08/13 01:29:16;;;;;;;3.77;1.60;;;;;;;;;;5034658;28;20203;-83
2022/08/13 01:31:44;;;;;;;4.23;1.90;;;;;;;;;;5033987;28;20223;-83
2022/08/13 01:34:11;;;;;;;2.53;2.20;;;;;;;;;;5034387;28;20561;-83
2022/08/13 01:36:38;;;;;;;1.67;1.57;;;;;;;;;;5033786;28;20265;-83
2022/08/13 01:39:07;;;;;;;2.03;1.70;;;;;;;;;;5034285;28;20234;-83
2022/08/13 01:41:34;;;;;;;1.80;1.70;;;;;;;;;;5033558;28;20234;-83
2022/08/13 01:44:04;;;;;;;1.43;1.33;;;;;;;;;;5034177;28;20203;-83
2022/08/13 01:50:28;;;;;;;2.40;1.77;;;;;;;;;;5033354;28;20246;-83
2022/08/13 01:52:05;;;;;;;1.60;1.50;;;;;;;;;;5032827;28;20413;-82
2022/08/13 01:54:33;;;;;;;5.80;2.20;;;;;;;;;;5033993;28;20662;-83
2022/08/13 01:57:01;;;;;;;1.80;1.70;;;;;;;;;;5033142;28;20264;-82
2022/08/13 01:59:28;;;;;;;3.40;1.80;;;;;;;;;;5034029;28;20695;-83
2022/08/13 02:01:57;;;;;;;1.73;1.63;;;;;;;;;;5032853;28;20245;-83
2022/08/13 02:04:24;;;;;;;2.63;1.70;;;;;;;;;;5033753;28;20294;-83
2022/08/13 02:06:52;;;;;;;4.37;1.80;;;;;;;;;;5033314;28;20238;-84
2022/08/13 02:09:19;;;;;;;2.33;2.00;;;;;;;;;;5033461;28;20203;-84
2022/08/13 02:11:48;;;;;;;4.07;1.80;;;;;;;;;;5032847;28;20230;-83
2022/08/13 02:14:15;;;;;;;2.80;1.80;;;;;;;;;;5033798;28;20297;-83
2022/08/13 02:16:42;;;;;;;1.80;1.70;;;;;;;;;;5032876;28;20246;-83
2022/08/13 02:19:09;;;;;;;3.17;1.73;;;;;;;;;;5013569;28;20725;-84
2022/08/13 02:21:37;;;;;;;4.17;1.90;;;;;;;;;;5013589;28;20711;-83
2022/08/13 02:24:08;;;;;;;2.17;1.70;;;;;;;;;;5021863;28;20555;-83
2022/08/13 02:26:38;;;;;;;2.17;1.70;;;;;;;;;;5012980;28;20274;-83
2022/08/13 02:29:08;;;;;;;1.87;1.77;;;;;;;;;;5013954;28;20203;-83
2022/08/13 02:31:36;;;;;;;2.87;1.87;;;;;;;;;;5012986;28;20261;-83
2022/08/13 02:34:03;;;;;;;1.60;1.50;;;;;;;;;;5013781;28;20207;-83
2022/08/13 02:36:30;;;;;;;1.90;1.80;;;;;;;;;;5031568;28;20242;-83
2022/08/13 02:38:58;;;;;;;1.93;1.73;;;;;;;;;;5033162;28;20253;-83
2022/08/13 02:41:42;;;;;;;2.60;1.70;;;;;;;;;;5032420;28;20234;-83
2022/08/13 02:44:12;;;;;;;3.03;1.90;;;;;;;;;;5014449;28;20191;-83
2022/08/13 02:46:40;;;;;;;1.90;1.80;;;;;;;;;;5032431;28;20230;-83
2022/08/13 02:49:07;;;;;;;2.10;1.90;;;;;;;;;;5032983;28;20227;-83
2022/08/13 02:51:34;;;;;;;2.87;1.90;;;;;;;;;;5032273;28;20246;-83
2022/08/13 02:54:01;;;;;;;1.90;1.80;;;;;;;;;;5033073;28;20215;-83
2022/08/13 02:56:29;;;;;;;2.40;1.80;;;;;;;;;;5032418;28;20239;-83
2022/08/13 02:58:56;;;;;;;3.53;1.70;;;;;;;;;;5033026;28;20321;-83
2022/08/13 03:01:26;;;;;;;1.90;1.80;;;;;;;;;;5032279;28;20261;-83
2022/08/13 03:03:53;;;;;;;2.63;1.80;;;;;;;;;;5033344;28;20575;-83
2022/08/13 03:06:20;;;;;;;4.40;2.00;;;;;;;;;;5032437;28;20245;-83
2022/08/13 03:08:49;;;;;;;1.70;1.60;;;;;;;;;;5032608;28;20691;-83
2022/08/13 03:11:16;;;;;;;5.43;2.00;;;;;;;;;;5032095;28;20234;-83
2022/08/13 03:13:45;;;;;;;2.43;2.00;;;;;;;;;;5032969;28;20202;-83
2022/08/13 03:16:13;;;;;;;2.80;1.97;;;;;;;;;;5032027;28;20238;-83
2022/08/13 03:18:42;;;;;;;6.57;1.97;;;;;;;;;;5032392;28;20203;-83
2022/08/13 03:21:09;;;;;;;2.17;2.07;;;;;;;;;;5031914;28;20253;-83
2022/08/13 03:23:37;;;;;;;2.30;2.10;;;;;;;;;;5032698;28;20207;-83
2022/08/13 03:26:04;;;;;;;2.13;2.00;;;;;;;;;;5031928;28;20246;-83
2022/08/13 03:28:31;;;;;;;3.37;2.30;;;;;;;;;;5032373;28;20663;-83
2022/08/13 03:30:58;;;;;;;2.17;2.07;;;;;;;;;;5032040;28;20233;-83
2022/08/13 03:33:27;;;;;;;2.87;2.30;;;;;;;;;;5034090;28;20210;-83
2022/08/13 03:35:56;;;;;;;2.03;1.90;;;;;;;;;;5036601;28;20322;-83
2022/08/13 03:38:23;;;;;;;3.87;2.00;;;;;;;;;;5036911;28;20214;-83
2022/08/13 03:41:02;;;;;;;2.40;2.20;;;;;;;;;;5036176;28;20242;-83
2022/08/13 03:43:30;;;;;;;2.27;2.07;;;;;;;;;;5036606;28;20650;-83
2022/08/13 03:45:58;;;;;;;4.27;2.20;;;;;;;;;;5036080;28;20257;-83
2022/08/13 03:48:26;;;;;;;3.13;2.20;;;;;;;;;;5036560;28;20284;-84
2022/08/13 03:50:53;;;;;;;3.43;2.10;;;;;;;;;;5036037;28;20223;-83
2022/08/13 03:53:21;;;;;;;2.40;2.10;;;;;;;;;;5037058;28;20199;-84
2022/08/13 03:55:48;;;;;;;2.53;2.13;;;;;;;;;;5036412;28;20671;-83
2022/08/13 03:58:17;;;;;;;5.27;2.20;;;;;;;;;;5037170;28;20199;-83
2022/08/13 04:00:47;;;;;;;7.03;2.33;;;;;;;;;;5036448;28;20258;-84
2022/08/13 04:03:16;;;;;;;11.03;2.57;;;;;;;;;;5037513;28;20238;-83
2022/08/13 04:05:44;;;;;;;5.10;2.47;;;;;;;;;;5036421;28;20234;-83
2022/08/13 04:08:11;;;;;;;10.77;2.20;;;;;;;;;;5037171;28;20211;-83
2022/08/13 04:10:40;;;;;;;5.63;2.07;;;;;;;;;;5036807;28;20254;-83
2022/08/13 04:13:12;;;;;;;2.13;2.00;;;;;;;;;;5046347;28;20225;-83
2022/08/13 04:15:42;;;;;;;1.90;1.80;;;;;;;;;;5037901;28;20242;-84
2022/08/13 04:18:09;;;;;;;3.47;2.00;;;;;;;;;;5037921;28;20686;-83
2022/08/13 04:20:37;;;;;;;2.07;1.97;;;;;;;;;;5029811;28;20237;-83
2022/08/13 04:23:09;;;;;;;2.20;1.97;;;;;;;;;;5036659;28;20221;-84
2022/08/13 04:25:36;;;;;;;2.23;2.13;;;;;;;;;;5036078;28;20317;-83
2022/08/13 04:28:07;;;;;;;2.47;2.27;;;;;;;;;;5036177;28;20234;-83
2022/08/13 04:30:41;;;;;;;4.43;2.07;;;;;;;;;;5035792;28;20231;-83
2022/08/13 04:33:09;;;;;;;1.90;1.80;;;;;;;;;;5036379;28;20202;-83
2022/08/13 04:35:36;;;;;;;2.20;2.00;;;;;;;;;;5035767;28;20246;-84
2022/08/13 04:38:05;;;;;;;4.50;2.10;;;;;;;;;;5036234;28;20234;-83
2022/08/13 04:40:33;;;;;;;1.90;1.80;;;;;;;;;;5035545;28;20284;-83
2022/08/13 04:43:00;;;;;;;3.13;2.07;;;;;;;;;;5036121;28;20211;-83
2022/08/13 04:45:30;;;;;;;2.10;2.00;;;;;;;;;;5034539;28;20254;-83
2022/08/13 04:47:59;;;;;;;2.37;1.90;;;;;;;;;;5035629;28;20234;-83
2022/08/13 04:50:26;;;;;;;2.00;1.90;;;;;;;;;;5035509;28;20254;-82
2022/08/13 04:52:53;;;;;;;4.50;1.80;;;;;;;;;;5036121;28;20252;-83
2022/08/13 04:55:20;;;;;;;8.37;2.43;;;;;;;;;;5035835;28;20281;-82
2022/08/13 04:57:48;;;;;;;10.73;3.33;;;;;;;;;;5035653;28;20214;-83
2022/08/13 05:00:16;;;;;;;5.60;2.77;;;;;;;;;;5035133;28;20332;-82
2022/08/13 05:02:44;;;;;;;3.47;2.03;;;;;;;;;;5035635;28;20210;-82
2022/08/13 05:05:12;;;;;;;5.50;2.00;;;;;;;;;;5035502;28;20245;-82
2022/08/13 05:07:39;;;;;;;6.97;2.23;;;;;;;;;;5036216;28;21049;-83
2022/08/13 05:10:07;;;;;;;2.73;2.37;;;;;;;;;;5035141;28;20202;-82
2022/08/13 05:12:38;;;;;;;9.20;2.60;;;;;;;;;;5016109;28;20203;-82
2022/08/13 05:15:06;;;;;;;4.93;2.63;;;;;;;;;;5053598;28;20698;-83
2022/08/13 05:17:33;;;;;;;2.50;2.30;;;;;;;;;;5055813;28;20226;-82
2022/08/13 05:20:02;;;;;;;5.23;2.80;;;;;;;;;;5047738;28;20268;-82
2022/08/13 05:22:29;;;;;;;10.73;2.80;;;;;;;;;;5035607;28;20206;-81
2022/08/13 05:24:56;;;;;;;7.23;2.47;;;;;;;;;;5035858;28;20218;-83
2022/08/13 05:27:23;;;;;;;4.30;2.83;;;;;;;;;;5037025;28;20229;-82
2022/08/13 05:29:50;;;;;;;8.90;2.70;;;;;;;;;;5035936;28;20218;-82
2022/08/13 05:32:18;;;;;;;3.43;2.37;;;;;;;;;;5035266;28;20231;-82
2022/08/13 05:34:45;;;;;;;6.60;2.60;;;;;;;;;;5035802;28;20207;-83
2022/08/13 05:37:16;;;;;;;5.60;2.27;;;;;;;;;;5035061;28;20242;-82
2022/08/13 05:39:43;;;;;;;2.27;2.07;;;;;;;;;;5035674;28;20290;-82
2022/08/13 05:42:10;;;;;;;4.20;2.30;;;;;;;;;;5034724;28;20265;-81
2022/08/13 05:44:38;;;;;;;3.93;2.50;;;;;;;;;;5035405;28;20210;-82
2022/08/13 05:47:05;;;;;;;3.10;2.40;;;;;;;;;;5036667;28;20234;-82
2022/08/13 05:49:33;;;;;;;4.03;2.40;;;;;;;;;;5037168;28;20292;-80
2022/08/13 05:52:01;;;;;;;3.93;2.53;;;;;;;;;;5040353;28;20754;-80
2022/08/13 05:54:31;;;;;;;2.97;2.40;;;;;;;;;;5037397;28;20985;-79
2022/08/13 05:56:58;;;;;;;3.83;2.40;;;;;;;;;;5037868;28;20234;-80
2022/08/13 06:04:55;;;;;;;4.77;2.40;;;;;;;;;;5036384;28;20202;-80
2022/08/13 06:07:22;;;;;;;5.90;2.57;;;;;;;;;;5036647;28;20323;-81
2022/08/13 06:09:51;;;;;;;2.10;2.00;;;;;;;;;;5035605;28;20666;-80
2022/08/13 06:12:18;;;;;;;3.63;2.40;;;;;;;;;;5034265;28;20681;-80
2022/08/13 06:14:45;;;;;;;11.90;3.10;;;;;;;;;;5035217;28;20218;-80
2022/08/13 06:17:13;;;;;;;2.50;2.30;;;;;;;;;;5034973;28;20235;-80
2022/08/13 06:19:43;;;;;;;2.33;2.23;;;;;;;;;;5034821;28;20226;-79
2022/08/13 06:22:10;;;;;;;2.73;2.23;;;;;;;;;;5034559;28;20238;-79
2022/08/13 06:24:37;;;;;;;3.13;2.80;;;;;;;;;;5034753;28;20215;-79
2022/08/13 06:27:06;;;;;;;6.63;2.60;;;;;;;;;;5033179;28;20238;-80
2022/08/13 06:29:35;;;;;;;5.43;2.77;;;;;;;;;;5033653;28;20211;-80
2022/08/13 06:32:03;;;;;;;4.43;2.33;;;;;;;;;;5034662;28;20277;-80
2022/08/13 06:34:31;;;;;;;5.17;2.60;;;;;;;;;;5036683;28;20242;-79
2022/08/13 06:36:58;;;;;;;4.30;2.40;;;;;;;;;;5033407;28;20234;-80
2022/08/13 06:39:28;;;;;;;2.30;2.10;;;;;;;;;;5033582;28;20297;-81
2022/08/13 06:41:55;;;;;;;2.40;2.20;;;;;;;;;;5033090;28;20303;-80
2022/08/13 06:44:24;;;;;;;2.67;2.20;;;;;;;;;;5034595;28;20675;-80
2022/08/13 06:46:52;;;;;;;4.00;2.20;;;;;;;;;;5033249;28;20249;-80
2022/08/13 06:49:19;;;;;;;2.50;2.30;;;;;;;;;;5041624;28;20293;-80
2022/08/13 06:51:46;;;;;;;2.13;2.00;;;;;;;;;;5039193;28;20610;-81
2022/08/13 06:54:13;;;;;;;2.72;1.92;;;;;;;;;;5038606;28;20210;-80
2022/08/13 06:56:40;;;;;;;2.13;1.92;;;;;;;;;;5035946;28;20250;-81
2022/08/13 06:59:08;;;;;;;2.83;2.10;;;;;;;;;;5036860;28;20245;-80
2022/08/13 07:01:37;;;;;;;3.58;2.33;;;;;;;;;;5035165;28;20235;-80
2022/08/13 07:04:08;;;;;;;1.90;1.80;;;;;;;;;;5035769;28;20245;-81
2022/08/13 07:06:36;;;;;;;2.20;1.80;;;;;;;;;;5034791;28;20242;-80
2022/08/13 07:09:03;;;;;;;7.05;1.85;;;;;;;;;;5036129;28;20209;-81
2022/08/13 07:11:32;;;;;;;2.78;2.20;;;;;;;;;;5055328;28;20233;-80
2022/08/13 07:14:01;;;;;;;1.65;1.55;;;;;;;;;;5059015;28;20655;-82
2022/08/13 07:16:30;;;;;;;3.55;1.70;;;;;;;;;;5060442;28;20252;-81
2022/08/13 07:18:59;;;;;;;3.05;1.60;;;;;;;;;;5059121;28;20646;-81
2022/08/13 07:21:27;;;;;;;1.60;1.50;;;;;;;;;;5054873;28;20241;-81
2022/08/13 07:23:55;;;;;;;1.60;1.45;;;;;;;;;;5055890;28;20205;-80
2022/08/13 07:26:24;;;;;;;1.33;1.27;;;;;;;;;;5054635;28;20238;-78
2022/08/13 07:28:51;;;;;;;1.95;1.50;;;;;;;;;;5054877;28;20230;-79
2022/08/13 07:31:20;;;;;;;1.50;1.40;;;;;;;;;;5033016;28;20237;-80
2022/08/13 07:33:51;;;;;;;1.95;1.58;;;;;;;;;;5033932;28;20206;-80
2022/08/13 07:36:20;;;;;;;1.50;1.40;;;;;;;;;;5033571;28;20240;-79
2022/08/13 07:38:48;;;;;;;3.03;1.45;;;;;;;;;;5033503;28;20203;-80
2022/08/13 07:41:15;;;;;;;1.42;1.33;;;;;;;;;;5034289;28;20231;-79
2022/08/13 07:43:43;;;;;;;2.38;1.67;;;;;;;;;;5035899;28;20206;-80
2022/08/13 07:46:12;;;;;;;3.65;1.60;;;;;;;;;;5034187;28;20246;-80
2022/08/13 07:48:40;;;;;;;2.45;1.63;;;;;;;;;;5037669;28;20317;-81
2022/08/13 07:51:10;;;;;;;1.30;1.30;;;;;;;;;;5037087;28;20237;-80
2022/08/13 07:53:39;;;;;;;2.38;1.33;;;;;;;;;;5036552;28;20210;-81
2022/08/13 07:56:06;;;;;;;3.63;1.55;;;;;;;;;;5035559;28;20584;-78
2022/08/13 07:58:34;;;;;;;1.45;1.35;;;;;;;;;;5034938;28;20209;-81
2022/08/13 08:01:01;;;;;;;1.58;1.30;;;;;;;;;;5034877;28;20235;-83
2022/08/13 08:03:32;;;;;;;2.67;1.50;;;;;;;;;;5035489;28;20279;-80
2022/08/13 08:06:01;;;;;;;1.30;1.20;;;;;;;;;;5035251;28;20726;-81
2022/08/13 08:08:28;;;;;;;2.33;1.30;;;;;;;;;;5036336;28;20211;-81
2022/08/13 08:10:57;;;;;;;1.90;1.20;;;;;;;;;;5035550;28;20238;-80
2022/08/13 08:13:24;;;;;;;3.25;1.10;;;;;;;;;;5036256;28;20199;-80
2022/08/13 08:15:51;;;;;;;1.42;1.33;;;;;;;;;;5036108;28;20249;-80
2022/08/13 08:18:18;;;;;;;1.30;1.27;;;;;;;;;;5036475;28;20203;-82
2022/08/13 08:20:45;;;;;;;1.30;1.20;;;;;;;;;;5037027;28;20230;-81
2022/08/13 08:23:12;;;;;;;1.50;1.40;;;;;;;;;;5039172;28;20601;-80
2022/08/13 08:25:41;;;;;;;1.40;1.30;;;;;;;;;;5038774;28;20234;-80
2022/08/13 08:28:10;;;;;;;2.92;1.27;;;;;;;;;;5038941;28;20238;-80
2022/08/13 08:30:38;;;;;;;1.58;1.48;;;;;;;;;;5038696;28;20602;-81
2022/08/13 08:33:05;;;;;;;2.30;1.20;;;;;;;;;;5036784;28;20198;-81
2022/08/13 08:35:33;;;;;;;3.13;1.40;;;;;;;;;;5036328;28;20237;-81
2022/08/13 08:43:33;;;;;;;2.38;1.38;;;;;;;;;;5037198;28;20200;-82
2022/08/13 08:46:02;;;;;;;2.05;1.30;;;;;;;;;;5036247;28;20231;-82
2022/08/13 08:48:30;;;;;;;2.63;1.60;;;;;;;;;;5037410;28;20191;-81
2022/08/13 08:50:58;;;;;;;1.60;1.50;;;;;;;;;;5036891;28;20310;-81
2022/08/13 08:53:26;;;;;;;1.40;1.30;;;;;;;;;;5037244;28;20207;-82
2022/08/13 08:55:53;;;;;;;1.60;1.50;;;;;;;;;;5037668;28;20257;-82
2022/08/13 08:58:21;;;;;;;2.50;1.23;;;;;;;;;;5038424;28;20385;-82
2022/08/13 09:00:50;;;;;;;1.95;1.60;;;;;;;;;;5056676;28;20235;-83
2022/08/13 09:03:19;;;;;;;1.55;1.45;;;;;;;;;;5056915;28;20183;-82
2022/08/13 09:05:46;;;;;;;2.47;1.50;;;;;;;;;;5037302;28;20234;-83
2022/08/13 09:08:15;;;;;;;1.35;1.25;;;;;;;;;;5038293;28;20214;-82
2022/08/13 09:10:44;;;;;;;1.58;1.35;;;;;;;;;;5036358;28;20238;-84
2022/08/13 09:13:12;;;;;;;1.40;1.30;;;;;;;;;;5037092;28;20202;-82
2022/08/13 09:15:40;;;;;;;3.78;1.48;;;;;;;;;;5036137;28;20321;-82
2022/08/13 09:18:09;;;;;;;2.22;1.60;;;;;;;;;;5037026;28;20257;-83
2022/08/13 09:20:37;;;;;;;3.30;1.95;;;;;;;;;;5036349;28;20231;-82
2022/08/13 09:23:06;;;;;;;2.42;1.40;;;;;;;;;;5036734;28;20783;-82
2022/08/13 09:25:33;;;;;;;3.95;1.50;;;;;;;;;;5036340;28;20235;-82
2022/08/13 09:28:00;;;;;;;3.75;1.38;;;;;;;;;;5036746;28;20711;-82
2022/08/13 09:30:27;;;;;;;1.25;1.17;;;;;;;;;;5035003;28;20230;-83
2022/08/13 09:32:56;;;;;;;1.48;1.38;;;;;;;;;;5036508;28;20203;-83
2022/08/13 09:35:25;;;;;;;1.30;1.20;;;;;;;;;;5035206;28;20607;-83
2022/08/13 09:37:56;;;;;;;1.73;1.33;;;;;;;;;;5036047;28;20231;-83
2022/08/13 09:40:25;;;;;;;1.35;1.25;;;;;;;;;;5035825;28;20233;-82
2022/08/13 09:42:57;;;;;;;1.38;1.27;;;;;;;;;;5035814;28;20773;-83
2022/08/13 09:45:25;;;;;;;1.75;1.25;;;;;;;;;;5034126;28;20234;-83
2022/08/13 09:47:52;;;;;;;2.70;1.40;;;;;;;;;;5033841;28;20437;-83
2022/08/13 09:50:21;;;;;;;1.50;1.40;;;;;;;;;;5034406;28;20238;-82
2022/08/13 09:52:50;;;;;;;2.38;1.60;;;;;;;;;;5034113;28;20734;-83
2022/08/13 09:55:18;;;;;;;1.55;1.45;;;;;;;;;;5034642;28;20257;-84
2022/08/13 09:57:51;;;;;;;2.00;1.30;;;;;;;;;;5036630;28;20230;-83
2022/08/13 10:00:21;;;;;;;6.53;1.40;;;;;;;;;;5037392;28;20289;-83
2022/08/13 10:02:50;;;;;;;2.28;1.27;;;;;;;;;;5035754;28;20670;-83
2022/08/13 10:05:18;;;;;;;1.20;1.10;;;;;;;;;;5034769;28;20234;-83
2022/08/13 10:07:45;;;;;;;1.65;1.50;;;;;;;;;;5035921;28;20249;-83
2022/08/13 10:10:13;;;;;;;1.95;1.27;;;;;;;;;;5048241;28;20248;-83
2022/08/13 10:12:40;;;;;;;1.35;1.25;;;;;;;;;;5034846;28;20210;-83
2022/08/13 10:15:09;;;;;;;1.25;1.13;;;;;;;;;;5033698;28;20713;-83
2022/08/13 10:17:46;;;;;;;1.33;1.30;;;;;;;;;;5034140;28;20256;-83
2022/08/13 10:20:15;;;;;;;4.07;1.10;;;;;;;;;;5033268;28;20288;-83
2022/08/13 10:22:42;;;;;;;1.83;1.42;;;;;;;;;;5033397;28;20226;-84
2022/08/13 10:25:09;;;;;;;1.10;1.00;;;;;;;;;;5033149;28;20203;-84
2022/08/13 10:27:37;;;;;;;1.60;1.15;;;;;;;;;;5033504;28;20605;-84
2022/08/13 10:30:06;;;;;;;1.20;1.20;;;;;;;;;;5033702;28;20213;-83
2022/08/13 10:32:33;;;;;;;1.55;1.40;;;;;;;;;;5033565;28;20251;-83
2022/08/13 10:35:02;;;;;;;1.20;1.10;;;;;;;;;;5033215;28;20233;-81
2022/08/13 10:37:29;;;;;;;1.17;1.17;;;;;;;;;;5033786;28;20230;-83
2022/08/13 10:39:56;;;;;;;3.17;1.20;;;;;;;;;;5032815;28;20202;-84
2022/08/13 10:42:23;;;;;;;5.65;1.08;;;;;;;;;;5032768;28;20256;-84
2022/08/13 10:44:52;;;;;;;1.50;1.40;;;;;;;;;;5033953;28;20212;-84
2022/08/13 10:47:21;;;;;;;1.13;1.05;;;;;;;;;;5033394;28;20229;-82
2022/08/13 10:49:49;;;;;;;2.30;1.00;;;;;;;;;;5033435;28;20239;-83
2022/08/13 10:52:16;;;;;;;4.03;1.50;;;;;;;;;;5032371;28;20336;-83
2022/08/13 10:54:43;;;;;;;1.85;0.90;;;;;;;;;;5034298;28;20214;-83
2022/08/13 10:57:11;;;;;;;1.40;1.30;;;;;;;;;;5032400;28;20233;-84
2022/08/13 10:59:38;;;;;;;1.30;1.20;;;;;;;;;;5032760;28;20216;-84
2022/08/13 11:02:09;;;;;;;1.08;0.98;;;;;;;;;;5031818;28;20843;-83
2022/08/13 11:04:36;;;;;;;2.60;0.90;;;;;;;;;;5033115;28;20206;-83
2022/08/13 11:07:03;;;;;;;1.23;1.20;;;;;;;;;;5074120;22;20625;-81
2022/08/13 11:09:31;;;;;;;1.42;1.33;;;;;;;;;;5072365;28;20227;-79
2022/08/13 11:11:59;;;;;;;1.42;1.08;;;;;;;;;;5072124;28;20610;-79
2022/08/13 11:14:26;;;;;;;3.70;1.15;;;;;;;;;;5072411;28;20220;-80
2022/08/13 11:16:57;;;;;;;3.80;1.23;;;;;;;;;;5071887;28;20232;-79
2022/08/13 11:19:28;;;;;;;3.97;1.30;;;;;;;;;;5072979;28;20189;-79
2022/08/13 11:21:56;;;;;;;3.15;1.55;;;;;;;;;;5071743;28;20286;-81
2022/08/13 11:24:23;;;;;;;1.20;1.15;;;;;;;;;;5072848;28;20232;-79
2022/08/13 11:26:50;;;;;;;2.28;0.90;;;;;;;;;;5075053;28;20255;-81
2022/08/13 11:29:17;;;;;;;2.17;1.00;;;;;;;;;;5076487;28;20208;-80
2022/08/13 11:31:44;;;;;;;1.00;1.00;;;;;;;;;;5073573;28;20240;-80
2022/08/13 11:34:11;;;;;;;0.88;0.88;;;;;;;;;;5073551;28;20204;-80
2022/08/13 11:36:40;;;;;;;1.20;1.20;;;;;;;;;;5072035;28;20240;-81
2022/08/13 11:39:07;;;;;;;1.10;1.10;;;;;;;;;;5072549;28;20204;-79
2022/08/13 11:41:34;;;;;;;1.85;1.10;;;;;;;;;;5071573;28;20260;-79
2022/08/13 11:44:01;;;;;;;3.10;1.15;;;;;;;;;;5073203;28;20228;-79
2022/08/13 11:46:29;;;;;;;3.13;1.30;;;;;;;;;;5072079;28;20239;-80
2022/08/13 11:48:56;;;;;;;1.42;1.33;;;;;;;;;;5072163;28;20687;-79
2022/08/13 11:51:23;;;;;;;1.00;1.00;;;;;;;;;;5072237;28;20228;-80
2022/08/13 11:53:51;;;;;;;1.58;1.00;;;;;;;;;;5073120;28;20204;-80
2022/08/13 11:56:18;;;;;;;0.95;0.95;;;;;;;;;;5076336;28;20251;-81
2022/08/13 11:58:45;;;;;;;1.20;1.20;;;;;;;;;;5076494;28;20742;-81
2022/08/13 12:01:18;;;;;;;1.00;1.00;;;;;;;;;;5076287;28;20243;-81
2022/08/13 12:03:45;;;;;;;2.10;1.02;;;;;;;;;;5077196;28;20289;-84
2022/08/13 12:06:12;;;;;;;1.40;1.30;;;;;;;;;;5076227;28;20243;-80
2022/08/13 12:08:39;;;;;;;1.08;1.00;;;;;;;;;;5077790;28;20216;-83
2022/08/13 12:11:07;;;;;;;1.73;1.20;;;;;;;;;;5076512;28;20232;-82
2022/08/13 12:13:34;;;;;;;1.15;1.05;;;;;;;;;;5077249;28;20196;-81
2022/08/13 12:16:01;;;;;;;1.00;1.00;;;;;;;;;;5077452;28;20290;-82
2022/08/13 12:18:29;;;;;;;1.15;1.15;;;;;;;;;;5077764;28;20237;-81
2022/08/13 12:20:56;;;;;;;1.02;1.02;;;;;;;;;;5076620;28;20239;-81
2022/08/13 12:23:23;;;;;;;1.42;1.20;;;;;;;;;;5076918;28;20225;-80
2022/08/13 12:25:50;;;;;;;1.30;1.20;;;;;;;;;;5077002;28;20236;-81
2022/08/13 12:28:19;;;;;;;1.10;1.10;;;;;;;;;;5076278;28;20205;-81
2022/08/13 12:30:47;;;;;;;3.03;1.13;;;;;;;;;;5076452;28;20228;-81
2022/08/13 12:33:14;;;;;;;0.93;0.93;;;;;;;;;;5077707;28;20250;-81
2022/08/13 12:35:41;;;;;;;0.95;0.80;;;;;;;;;;5076379;28;20602;-81
2022/08/13 12:38:09;;;;;;;1.30;1.20;;;;;;;;;;5077140;28;20211;-82
2022/08/13 12:40:36;;;;;;;1.00;1.00;;;;;;;;;;5077270;28;20232;-82
2022/08/13 12:43:03;;;;;;;1.75;1.10;;;;;;;;;;5076932;28;20228;-80
2022/08/13 12:45:32;;;;;;;1.50;1.20;;;;;;;;;;5076979;28;20225;-81
2022/08/13 12:48:03;;;;;;;1.00;1.00;;;;;;;;;;5077374;28;20200;-81
2022/08/13 12:50:30;;;;;;;1.30;1.20;;;;;;;;;;5077544;28;20241;-80
2022/08/13 12:52:57;;;;;;;1.92;1.05;;;;;;;;;;5077306;28;20203;-81
2022/08/13 12:55:24;;;;;;;1.23;1.05;;;;;;;;;;5076518;28;20696;-82
2022/08/13 12:57:51;;;;;;;1.23;1.20;;;;;;;;;;5077301;28;20680;-81
2022/08/13 13:00:19;;;;;;;1.23;1.00;;;;;;;;;;5077402;28;20239;-83
2022/08/13 13:02:47;;;;;;;1.10;1.10;;;;;;;;;;5078561;28;20569;-81
2022/08/13 13:05:15;;;;;;;1.10;1.10;;;;;;;;;;5076247;28;20236;-80
2022/08/13 13:07:42;;;;;;;1.30;1.20;;;;;;;;;;5076030;28;20287;-81
2022/08/13 13:10:10;;;;;;;1.60;1.10;;;;;;;;;;5076480;28;20209;-83
2022/08/13 13:12:37;;;;;;;2.38;1.33;;;;;;;;;;5078087;28;20201;-82
2022/08/13 13:15:04;;;;;;;1.38;1.20;;;;;;;;;;5077008;28;20209;-81
2022/08/13 13:17:33;;;;;;;1.17;1.10;;;;;;;;;;5076796;28;20281;-82
2022/08/13 13:20:02;;;;;;;1.00;1.00;;;;;;;;;;5076172;28;20219;-81
2022/08/13 13:22:29;;;;;;;2.03;1.00;;;;;;;;;;5076398;28;20232;-81
2022/08/13 13:24:56;;;;;;;2.05;1.20;;;;;;;;;;5075995;28;20208;-81
2022/08/13 13:27:23;;;;;;;3.28;1.30;;;;;;;;;;5076455;28;20229;-82
2022/08/13 13:29:50;;;;;;;3.22;1.30;;;;;;;;;;5076584;28;20212;-81
2022/08/13 13:32:18;;;;;;;1.38;1.20;;;;;;;;;;5076426;28;20225;-82
2022/08/13 13:34:45;;;;;;;3.20;1.20;;;;;;;;;;5076497;28;20215;-81
2022/08/13 13:37:13;;;;;;;1.55;1.48;;;;;;;;;;5075688;28;20240;-81
2022/08/13 13:39:41;;;;;;;0.90;0.90;;;;;;;;;;5075878;28;20211;-81
2022/08/13 13:42:09;;;;;;;1.00;1.00;;;;;;;;;;5075707;28;20228;-84
2022/08/13 13:44:36;;;;;;;1.35;1.00;;;;;;;;;;5076983;28;20286;-82
2022/08/13 13:47:04;;;;;;;1.50;1.15;;;;;;;;;;5076230;28;20263;-80
2022/08/13 13:49:31;;;;;;;1.38;1.10;;;;;;;;;;5077000;28;20205;-81
2022/08/13 13:51:58;;;;;;;1.05;1.00;;;;;;;;;;5076021;28;20233;-83
2022/08/13 13:54:27;;;;;;;0.90;0.90;;;;;;;;;;5076371;28;20209;-80
2022/08/13 13:56:54;;;;;;;1.17;0.93;;;;;;;;;;5076081;28;20236;-82
2022/08/13 13:59:21;;;;;;;1.33;1.27;;;;;;;;;;5076392;28;20201;-80
2022/08/13 14:01:48;;;;;;;1.27;1.20;;;;;;;;;;5076764;28;20229;-82
2022/08/13 14:04:16;;;;;;;1.65;1.38;;;;;;;;;;5076034;28;20228;-80
2022/08/13 14:06:44;;;;;;;2.08;1.10;;;;;;;;;;5075781;28;20302;-81
2022/08/13 14:09:11;;;;;;;1.80;1.08;;;;;;;;;;5077062;28;20207;-82
2022/08/13 14:11:42;;;;;;;2.13;1.10;;;;;;;;;;5076271;28;20236;-81
2022/08/13 14:14:09;;;;;;;3.05;1.20;;;;;;;;;;5077839;28;20274;-80
2022/08/13 14:16:40;;;;;;;1.60;1.50;;;;;;;;;;5077084;28;20239;-84
2022/08/13 14:19:07;;;;;;;1.10;1.10;;;;;;;;;;5075814;28;20207;-82
2022/08/13 14:21:34;;;;;;;1.10;1.10;;;;;;;;;;5075197;28;20240;-80
2022/08/13 14:24:02;;;;;;;1.38;1.02;;;;;;;;;;5076507;28;20227;-80
2022/08/13 14:26:30;;;;;;;1.40;1.30;;;;;;;;;;5076262;28;20240;-83
2022/08/13 14:28:58;;;;;;;1.13;1.02;;;;;;;;;;5075792;28;20208;-80
2022/08/13 14:31:25;;;;;;;1.08;1.08;;;;;;;;;;5074865;28;20233;-81
2022/08/13 14:33:55;;;;;;;2.80;1.27;;;;;;;;;;5075319;28;20669;-79
2022/08/13 14:36:24;;;;;;;1.20;1.10;;;;;;;;;;5075287;28;20267;-81
2022/08/13 14:38:52;;;;;;;1.50;1.40;;;;;;;;;;5075004;28;20201;-80
2022/08/13 14:41:19;;;;;;;1.85;1.20;;;;;;;;;;5074364;28;20237;-79
2022/08/13 14:43:47;;;;;;;2.33;1.15;;;;;;;;;;5081520;28;20233;-79
2022/08/13 14:46:17;;;;;;;1.60;1.38;;;;;;;;;;5075388;28;20244;-80
2022/08/13 14:48:44;;;;;;;2.45;1.42;;;;;;;;;;5076155;28;20236;-81
2022/08/13 14:51:11;;;;;;;1.10;1.10;;;;;;;;;;5075476;28;20233;-79
2022/08/13 14:53:39;;;;;;;4.30;1.80;;;;;;;;;;5074596;28;20205;-80
2022/08/13 14:56:06;;;;;;;3.00;1.55;;;;;;;;;;5073880;28;20243;-82
2022/08/13 14:58:33;;;;;;;2.72;1.40;;;;;;;;;;5073821;28;20634;-79
2022/08/13 15:01:01;;;;;;;2.00;1.25;;;;;;;;;;5073345;28;20236;-80
2022/08/13 15:03:31;;;;;;;1.40;1.17;;;;;;;;;;5074231;28;20284;-80
2022/08/13 15:06:00;;;;;;;1.73;1.60;;;;;;;;;;5073412;28;20236;-82
2022/08/13 15:08:29;;;;;;;1.88;1.20;;;;;;;;;;5075271;28;20193;-80